createdAt,value
2022-12-09T00:02:17.376Z,5.01
2022-12-09T00:04:54.283Z,5.04
2022-12-09T00:07:24.150Z,5.07
2022-12-09T00:09:57.411Z,5.08
2022-12-09T00:12:31.268Z,5.08
2022-12-09T00:15:00.226Z,5.09
2022-12-09T00:17:27.726Z,5.11
2022-12-09T00:19:56.054Z,5.10
2022-12-09T00:22:29.508Z,5.11
2022-12-09T00:24:58.346Z,5.12
2022-12-09T00:27:43.192Z,5.12
2022-12-09T00:30:10.659Z,5.13
2022-12-09T00:32:43.230Z,5.10
2022-12-09T00:35:13.289Z,5.07
2022-12-09T00:37:54.485Z,5.03
2022-12-09T00:40:35.704Z,5.03
2022-12-09T00:43:03.391Z,5.04
2022-12-09T00:45:38.640Z,5.02
2022-12-09T00:48:07.327Z,5.02
2022-12-09T00:50:35.663Z,5.02
2022-12-09T00:53:05.496Z,5.01
2022-12-09T00:55:33.273Z,5.02
2022-12-09T00:58:07.267Z,4.99
2022-12-09T01:00:39.149Z,4.96
2022-12-09T01:03:19.567Z,4.92
2022-12-09T01:05:49.365Z,4.91
2022-12-09T01:08:21.202Z,4.91
2022-12-09T01:10:49.606Z,4.92
2022-12-09T01:13:18.561Z,4.90
2022-12-09T01:15:45.359Z,4.90
2022-12-09T01:18:15.053Z,4.86
2022-12-09T01:20:45.617Z,4.86
2022-12-09T01:23:16.848Z,4.86
2022-12-09T01:25:52.140Z,4.79
2022-12-09T01:28:24.158Z,4.81
2022-12-09T01:30:56.461Z,4.79
2022-12-09T01:33:26.800Z,4.73
2022-12-09T01:36:14.435Z,4.73
2022-12-09T01:38:48.611Z,4.72
2022-12-09T01:41:23.663Z,4.73
2022-12-09T01:44:22.592Z,4.73
2022-12-09T01:47:08.703Z,4.73
2022-12-09T01:49:43.183Z,4.74
2022-12-09T01:52:23.141Z,4.77
2022-12-09T01:54:52.826Z,4.75
2022-12-09T01:57:29.768Z,4.75
2022-12-09T02:00:04.880Z,4.79
2022-12-09T02:02:50.918Z,4.81
2022-12-09T02:05:30.276Z,4.76
2022-12-09T02:08:05.112Z,4.78
2022-12-09T02:10:50.798Z,4.80
2022-12-09T02:13:36.387Z,4.83
2022-12-09T02:16:11.137Z,4.82
2022-12-09T02:18:47.257Z,4.81
2022-12-09T02:21:25.654Z,4.79
2022-12-09T02:24:22.335Z,4.83
2022-12-09T02:27:06.812Z,4.79
2022-12-09T02:29:53.628Z,4.75
2022-12-09T02:32:37.917Z,4.72
2022-12-09T02:35:30.347Z,4.71
2022-12-09T02:37:59.547Z,4.71
2022-12-09T02:40:36.364Z,4.71
2022-12-09T02:43:09.996Z,4.71
2022-12-09T02:45:41.476Z,4.69
2022-12-09T02:48:11.436Z,4.69
2022-12-09T02:50:41.732Z,4.68
2022-12-09T02:53:12.168Z,4.68
2022-12-09T02:55:42.771Z,4.70
2022-12-09T02:58:13.535Z,4.70
2022-12-09T03:00:41.936Z,4.73
2022-12-09T03:03:17.493Z,4.75
2022-12-09T03:05:59.135Z,4.74
2022-12-09T03:08:50.799Z,4.73
2022-12-09T03:11:20.692Z,4.72
2022-12-09T03:14:15.844Z,4.73
2022-12-09T03:17:11.315Z,4.75
2022-12-09T03:19:47.405Z,4.74
2022-12-09T03:22:20.184Z,4.75
2022-12-09T03:24:59.502Z,4.73
2022-12-09T03:27:34.258Z,4.71
2022-12-09T03:30:08.949Z,4.70
2022-12-09T03:32:39.718Z,4.70
2022-12-09T03:35:23.347Z,4.69
2022-12-09T03:37:55.085Z,4.68
2022-12-09T03:40:27.798Z,4.67
2022-12-09T03:43:09.748Z,4.61
2022-12-09T03:45:48.951Z,4.62
2022-12-09T03:48:24.171Z,4.62
2022-12-09T03:51:18.891Z,4.59
2022-12-09T03:54:06.719Z,4.53
2022-12-09T03:56:45.077Z,4.52
2022-12-09T03:59:14.014Z,4.54
2022-12-09T04:01:43.723Z,4.55
2022-12-09T04:04:13.425Z,4.54
2022-12-09T04:06:41.747Z,4.52
2022-12-09T04:09:12.694Z,4.49
2022-12-09T04:11:39.819Z,4.45
2022-12-09T04:14:13.733Z,4.41
2022-12-09T04:16:47.564Z,4.37
2022-12-09T04:19:15.606Z,4.36
2022-12-09T04:21:43.395Z,4.37
2022-12-09T04:24:10.813Z,4.35
2022-12-09T04:26:38.202Z,4.33
2022-12-09T04:29:05.113Z,4.31
2022-12-09T04:31:33.529Z,4.26
2022-12-09T04:34:08.282Z,4.21
2022-12-09T04:36:39.563Z,4.20
2022-12-09T04:39:07.438Z,4.23
2022-12-09T04:41:34.404Z,4.25
2022-12-09T04:44:01.881Z,4.27
2022-12-09T04:46:29.061Z,4.29
2022-12-09T04:48:56.887Z,4.31
2022-12-09T04:51:24.106Z,4.34
2022-12-09T04:53:51.366Z,4.37
2022-12-09T04:56:21.556Z,4.38
2022-12-09T04:58:52.563Z,4.37
2022-12-09T05:01:31.404Z,4.39
2022-12-09T05:04:00.511Z,4.41
2022-12-09T05:06:29.357Z,4.42
2022-12-09T05:09:01.204Z,4.43
2022-12-09T05:11:34.639Z,4.42
2022-12-09T05:14:03.018Z,4.35
2022-12-09T05:16:33.224Z,4.33
2022-12-09T05:19:03.414Z,4.32
2022-12-09T05:21:35.132Z,4.30
2022-12-09T05:24:03.964Z,4.26
2022-12-09T05:26:31.163Z,4.22
2022-12-09T05:29:00.876Z,4.17
2022-12-09T05:31:37.073Z,4.15
2022-12-09T05:34:19.406Z,4.15
2022-12-09T05:37:02.369Z,4.16
2022-12-09T05:39:39.166Z,4.13
2022-12-09T05:42:13.347Z,4.11
2022-12-09T05:44:44.413Z,4.10
2022-12-09T05:47:19.418Z,4.09
2022-12-09T05:49:48.409Z,4.05
2022-12-09T05:52:24.521Z,3.99
2022-12-09T05:54:56.254Z,3.98
2022-12-09T05:57:23.556Z,3.96
2022-12-09T05:59:50.273Z,3.96
2022-12-09T06:02:16.905Z,3.93
2022-12-09T06:04:47.315Z,3.91
2022-12-09T06:07:14.308Z,3.86
2022-12-09T06:09:41.160Z,3.84
2022-12-09T06:12:07.944Z,3.87
2022-12-09T06:14:34.800Z,3.84
2022-12-09T06:17:01.678Z,3.83
2022-12-09T06:19:28.354Z,3.80
2022-12-09T06:21:55.465Z,3.75
2022-12-09T06:24:22.386Z,3.69
2022-12-09T06:26:49.399Z,3.61
2022-12-09T06:29:15.949Z,3.54
2022-12-09T06:31:42.899Z,3.45
2022-12-09T06:34:09.823Z,3.41
2022-12-09T06:36:36.383Z,3.39
2022-12-09T06:39:10.156Z,3.37
2022-12-09T06:41:38.124Z,3.30
2022-12-09T06:44:05.518Z,3.26
2022-12-09T06:46:32.684Z,3.22
2022-12-09T06:48:59.491Z,3.20
2022-12-09T06:51:26.284Z,3.15
2022-12-09T06:53:53.573Z,3.11
2022-12-09T06:56:20.911Z,3.07
2022-12-09T06:58:48.298Z,3.05
2022-12-09T07:01:14.971Z,3.03
2022-12-09T07:03:46.741Z,3.00
2022-12-09T07:06:36.170Z,2.91
2022-12-09T07:09:07.276Z,2.90
2022-12-09T07:11:34.666Z,2.85
2022-12-09T07:14:02.176Z,2.76
2022-12-09T07:16:29.337Z,2.71
2022-12-09T07:18:57.275Z,2.64
2022-12-09T07:21:24.168Z,2.56
2022-12-09T07:23:51.199Z,2.51
2022-12-09T07:26:18.643Z,2.50
2022-12-09T07:28:50.376Z,2.43
2022-12-09T07:31:26.309Z,2.36
2022-12-09T07:33:55.399Z,2.32
2022-12-09T07:36:27.323Z,2.25
2022-12-09T07:38:58.610Z,2.25
2022-12-09T07:41:25.945Z,2.24
2022-12-09T07:43:52.999Z,2.17
2022-12-09T07:46:21.715Z,2.22
2022-12-09T07:48:49.512Z,2.20
2022-12-09T07:51:19.446Z,2.22
2022-12-09T07:53:46.912Z,2.21
2022-12-09T07:56:15.138Z,2.17
2022-12-09T08:01:16.127Z,2.03
2022-12-09T08:03:43.657Z,2.01
2022-12-09T08:06:16.138Z,2.05
2022-12-09T08:08:44.280Z,2.03
2022-12-09T08:11:22.442Z,2.04
2022-12-09T08:13:50.333Z,2.04
2022-12-09T08:16:20.393Z,2.06
2022-12-09T08:18:48.149Z,2.04
2022-12-09T08:21:18.274Z,2.00
2022-12-09T08:23:45.685Z,2.01
2022-12-09T08:26:14.729Z,2.03
2022-12-09T08:28:42.324Z,2.08
2022-12-09T08:31:12.524Z,2.15
2022-12-09T08:33:40.000Z,2.20
2022-12-09T08:36:11.754Z,2.27
2022-12-09T08:38:38.819Z,2.29
2022-12-09T08:41:35.396Z,2.27
2022-12-09T08:44:12.366Z,2.18
2022-12-09T08:46:41.811Z,1.98
2022-12-09T08:49:09.184Z,2.00
2022-12-09T08:51:36.662Z,2.02
2022-12-09T08:54:04.443Z,2.11
2022-12-09T08:56:32.056Z,2.24
2022-12-09T08:58:58.842Z,2.43
2022-12-09T09:01:32.289Z,2.49
2022-12-09T09:04:07.012Z,2.68
2022-12-09T09:06:35.169Z,2.83
2022-12-09T09:09:02.124Z,2.82
2022-12-09T09:11:28.970Z,2.83
2022-12-09T09:13:56.210Z,2.93
2022-12-09T09:16:25.583Z,2.98
2022-12-09T09:18:53.360Z,2.92
2022-12-09T09:21:23.350Z,2.85
2022-12-09T09:23:50.360Z,2.83
2022-12-09T09:26:19.451Z,2.83
2022-12-09T09:28:46.710Z,2.83
2022-12-09T09:31:17.120Z,2.83
2022-12-09T09:33:45.217Z,2.91
2022-12-09T09:36:20.222Z,3.05
2022-12-09T09:38:51.570Z,3.14
2022-12-09T09:41:40.247Z,3.17
2022-12-09T09:44:38.776Z,3.28
2022-12-09T09:47:23.430Z,3.35
2022-12-09T09:50:17.968Z,3.50
2022-12-09T09:52:44.820Z,3.72
2022-12-09T09:55:16.819Z,3.92
2022-12-09T09:57:51.761Z,4.20
2022-12-09T10:00:27.006Z,4.61
2022-12-09T10:03:09.560Z,4.93
2022-12-09T10:05:42.778Z,5.36
2022-12-09T10:08:18.883Z,5.72
2022-12-09T10:11:15.013Z,5.91
2022-12-09T10:13:52.790Z,5.95
2022-12-09T10:16:26.004Z,6.13
2022-12-09T10:19:07.711Z,6.15
2022-12-09T10:21:41.125Z,6.07
2022-12-09T10:24:20.020Z,6.28
2022-12-09T10:27:13.459Z,6.27
2022-12-09T10:29:51.409Z,6.48
2022-12-09T10:32:20.426Z,6.91
2022-12-09T10:34:48.670Z,7.05
2022-12-09T10:37:38.928Z,7.03
2022-12-09T10:40:12.202Z,7.06
2022-12-09T10:43:09.611Z,6.98
2022-12-09T10:46:17.278Z,6.97
2022-12-09T10:48:43.208Z,6.84
2022-12-09T10:51:11.309Z,6.74
2022-12-09T10:53:45.348Z,6.65
2022-12-09T10:56:19.463Z,6.74
2022-12-09T10:58:46.105Z,6.85
2022-12-09T11:01:16.052Z,7.18
2022-12-09T11:03:52.618Z,7.39
2022-12-09T11:06:28.526Z,7.58
2022-12-09T11:08:59.179Z,7.69
2022-12-09T11:11:42.089Z,7.95
2022-12-09T11:14:25.850Z,8.16
2022-12-09T11:17:12.345Z,8.26
2022-12-09T11:19:40.753Z,8.26
2022-12-09T11:22:29.317Z,8.31
2022-12-09T11:25:11.886Z,8.27
2022-12-09T11:27:57.005Z,8.33
2022-12-09T11:30:31.757Z,8.28
2022-12-09T11:33:06.849Z,8.35
2022-12-09T11:35:45.862Z,8.39
2022-12-09T11:38:16.171Z,8.47
2022-12-09T11:40:43.137Z,8.51
2022-12-09T11:43:10.205Z,8.61
2022-12-09T11:45:40.402Z,8.72
2022-12-09T11:48:40.045Z,8.70
2022-12-09T11:51:22.388Z,8.92
2022-12-09T11:53:49.035Z,9.09
2022-12-09T11:56:19.098Z,9.22
2022-12-09T11:58:53.461Z,9.31
2022-12-09T12:01:52.253Z,9.21
2022-12-09T12:04:26.566Z,9.14
2022-12-09T12:07:02.458Z,8.88
2022-12-09T12:09:40.444Z,8.54
2022-12-09T12:12:18.958Z,8.35
2022-12-09T12:14:45.602Z,8.06
2022-12-09T12:17:33.495Z,8.25
2022-12-09T12:20:00.315Z,8.37
2022-12-09T12:22:54.640Z,8.41
2022-12-09T12:25:43.601Z,8.55
2022-12-09T12:28:31.288Z,8.71
2022-12-09T12:31:25.116Z,8.58
2022-12-09T12:34:23.514Z,8.16
2022-12-09T12:37:22.375Z,7.97
2022-12-09T12:40:08.261Z,7.82
2022-12-09T12:43:13.202Z,7.64
2022-12-09T12:46:13.533Z,7.30
2022-12-09T12:48:56.786Z,7.22
2022-12-09T12:51:35.148Z,7.01
2022-12-09T12:54:01.461Z,6.67
2022-12-09T12:56:45.438Z,6.73
2022-12-09T12:59:27.080Z,6.63
2022-12-09T13:02:00.312Z,6.55
2022-12-09T13:04:57.369Z,6.46
2022-12-09T13:07:36.412Z,6.41
2022-12-09T13:10:13.741Z,6.28
2022-12-09T13:12:54.943Z,6.26
2022-12-09T13:15:32.355Z,6.28
2022-12-09T13:18:21.888Z,6.27
2022-12-09T13:21:01.348Z,6.24
2022-12-09T13:23:53.203Z,6.25
2022-12-09T13:26:30.425Z,6.10
2022-12-09T13:29:02.666Z,6.08
2022-12-09T13:31:32.244Z,6.00
2022-12-09T13:34:01.763Z,5.97
2022-12-09T13:36:36.056Z,5.88
2022-12-09T13:39:04.134Z,5.55
2022-12-09T13:41:30.529Z,5.63
2022-12-09T13:44:06.236Z,5.56
2022-12-09T13:46:33.863Z,5.52
2022-12-09T13:49:10.395Z,5.40
2022-12-09T13:51:48.136Z,5.36
2022-12-09T13:54:20.485Z,5.41
2022-12-09T13:57:09.866Z,5.21
2022-12-09T13:59:48.080Z,5.28
2022-12-09T14:02:20.263Z,5.31
2022-12-09T14:04:59.829Z,5.66
2022-12-09T14:07:34.524Z,5.67
2022-12-09T14:10:01.429Z,5.43
2022-12-09T14:12:32.530Z,5.35
2022-12-09T14:15:25.861Z,5.32
2022-12-09T14:17:52.217Z,5.32
2022-12-09T14:20:28.177Z,5.32
2022-12-09T14:23:07.020Z,5.18
2022-12-09T14:25:36.431Z,5.16
2022-12-09T14:28:12.049Z,5.01
2022-12-09T14:30:47.856Z,4.85
2022-12-09T14:33:47.317Z,4.83
2022-12-09T14:36:16.576Z,4.90
2022-12-09T14:42:01.231Z,4.86
2022-12-09T14:44:34.792Z,4.88
2022-12-09T14:47:15.677Z,4.84
2022-12-09T14:49:48.846Z,4.83
2022-12-09T14:52:29.964Z,4.81
2022-12-09T14:54:59.992Z,4.77
2022-12-09T14:57:38.390Z,4.73
2022-12-09T15:00:06.311Z,4.65
2022-12-09T15:02:33.102Z,4.59
2022-12-09T15:05:01.759Z,4.53
2022-12-09T15:07:33.335Z,4.46
2022-12-09T15:10:07.361Z,4.48
2022-12-09T15:12:40.370Z,4.43
2022-12-09T15:15:18.766Z,4.41
2022-12-09T15:18:00.483Z,4.42
2022-12-09T15:20:36.544Z,4.45
2022-12-09T15:23:06.349Z,4.41
2022-12-09T15:25:37.399Z,4.33
2022-12-09T15:28:12.849Z,4.24
2022-12-09T15:30:39.839Z,4.22
2022-12-09T15:33:15.712Z,4.16
2022-12-09T15:35:49.307Z,4.10
2022-12-09T15:38:16.004Z,4.08
2022-12-09T15:41:04.234Z,4.08
2022-12-09T15:43:31.961Z,4.00
2022-12-09T15:45:58.518Z,3.92
2022-12-09T15:48:31.509Z,3.87
2022-12-09T15:51:03.590Z,3.80
2022-12-09T15:53:39.096Z,3.72
2022-12-09T15:56:22.940Z,3.67
2022-12-09T15:58:52.482Z,3.60
2022-12-09T16:01:23.723Z,3.51
2022-12-09T16:03:52.491Z,3.46
2022-12-09T16:06:44.449Z,3.38
2022-12-09T16:09:17.391Z,3.34
2022-12-09T16:11:50.397Z,3.32
2022-12-09T16:14:18.375Z,3.29
2022-12-09T16:16:56.920Z,3.26
2022-12-09T16:19:40.478Z,3.20
2022-12-09T16:22:15.993Z,3.13
2022-12-09T16:27:37.229Z,2.90
2022-12-09T16:30:21.454Z,2.94
2022-12-09T16:32:51.415Z,2.85
2022-12-09T16:35:22.613Z,2.82
2022-12-09T16:37:58.444Z,2.83
2022-12-09T16:40:24.884Z,2.83
2022-12-09T16:43:15.507Z,2.82
2022-12-09T16:45:44.393Z,2.86
2022-12-09T16:48:11.999Z,2.90
2022-12-09T16:50:47.728Z,2.90
2022-12-09T16:53:27.115Z,2.90
2022-12-09T16:55:55.491Z,2.90
2022-12-09T16:58:22.396Z,2.90
2022-12-09T17:00:49.625Z,2.86
2022-12-09T17:03:28.872Z,2.86
2022-12-09T17:05:55.420Z,2.82
2022-12-09T17:08:22.366Z,2.79
2022-12-09T17:10:49.030Z,2.77
2022-12-09T17:13:15.519Z,2.73
2022-12-09T17:15:42.195Z,2.71
2022-12-09T17:18:09.928Z,2.71
2022-12-09T17:20:37.668Z,2.70
2022-12-09T17:23:04.850Z,2.69
2022-12-09T17:25:33.141Z,2.67
2022-12-09T17:28:05.559Z,2.64
2022-12-09T17:30:36.165Z,2.62
2022-12-09T17:33:02.605Z,2.60
2022-12-09T17:35:29.156Z,2.61
2022-12-09T17:37:55.639Z,2.60
2022-12-09T17:40:22.143Z,2.57
2022-12-09T17:42:48.625Z,2.55
2022-12-09T17:45:15.149Z,2.54
2022-12-09T17:47:41.667Z,2.51
2022-12-09T17:50:08.760Z,2.49
2022-12-09T17:52:35.653Z,2.48
2022-12-09T17:55:02.214Z,2.47
2022-12-09T17:57:28.647Z,2.43
2022-12-09T17:59:55.119Z,2.41
2022-12-09T18:02:21.684Z,2.38
2022-12-09T18:04:48.265Z,2.33
2022-12-09T18:07:14.736Z,2.31
2022-12-09T18:09:41.217Z,2.30
2022-12-09T18:12:07.698Z,2.27
2022-12-09T18:14:34.352Z,2.25
2022-12-09T18:17:01.289Z,2.22
2022-12-09T18:19:28.418Z,2.19
2022-12-09T18:21:58.040Z,2.18
2022-12-09T18:24:24.584Z,2.15
2022-12-09T18:26:50.996Z,2.09
2022-12-09T18:29:17.691Z,2.08
2022-12-09T18:31:52.678Z,2.07
2022-12-09T18:34:20.772Z,2.07
2022-12-09T18:36:47.296Z,2.05
2022-12-09T18:39:15.523Z,2.05
2022-12-09T18:41:42.603Z,2.04
2022-12-09T18:44:10.169Z,2.03
2022-12-09T18:46:39.498Z,2.01
2022-12-09T18:49:13.970Z,2.02
2022-12-09T18:51:42.303Z,2.01
2022-12-09T18:54:10.605Z,1.97
2022-12-09T18:56:37.188Z,1.94
2022-12-09T18:59:06.967Z,1.91
2022-12-09T19:01:39.060Z,1.89
2022-12-09T19:04:07.362Z,1.86
2022-12-09T19:06:37.120Z,1.85
2022-12-09T19:09:09.404Z,1.85
2022-12-09T19:11:37.819Z,1.80
2022-12-09T19:14:06.005Z,1.76
2022-12-09T19:16:33.505Z,1.77
2022-12-09T19:19:05.367Z,1.77
2022-12-09T19:21:34.240Z,1.77
2022-12-09T19:24:00.727Z,1.74
2022-12-09T19:26:30.007Z,1.74
2022-12-09T19:28:59.169Z,1.70
2022-12-09T19:31:27.709Z,1.70
2022-12-09T19:33:54.887Z,2.09
2022-12-09T19:36:22.041Z,2.18
2022-12-09T19:38:48.597Z,2.01
2022-12-09T19:41:15.065Z,1.87
2022-12-09T19:43:41.506Z,1.77
2022-12-09T19:46:11.068Z,1.74
2022-12-09T19:48:44.251Z,1.72
2022-12-09T19:51:13.388Z,1.72
2022-12-09T19:53:40.386Z,1.74
2022-12-09T19:56:10.555Z,1.74
2022-12-09T19:58:38.786Z,1.76
2022-12-09T20:01:10.342Z,1.73
2022-12-09T20:03:38.837Z,1.64
2022-12-09T20:06:06.514Z,1.63
2022-12-09T20:08:33.172Z,1.59
2022-12-09T20:10:59.923Z,1.55
2022-12-09T20:13:31.671Z,1.59
2022-12-09T20:16:03.659Z,1.58
2022-12-09T20:18:30.140Z,1.55
2022-12-09T20:21:01.329Z,1.61
2022-12-09T20:23:28.184Z,1.60
2022-12-09T20:25:54.762Z,1.59
2022-12-09T20:28:21.216Z,1.54
2022-12-09T20:30:47.667Z,1.45
2022-12-09T20:33:14.147Z,1.37
2022-12-09T20:35:40.627Z,1.33
2022-12-09T20:38:08.280Z,1.30
2022-12-09T20:40:40.496Z,1.25
2022-12-09T20:43:07.284Z,1.19
2022-12-09T20:45:33.712Z,1.06
2022-12-09T20:48:00.176Z,0.98
2022-12-09T20:50:26.607Z,0.92
2022-12-09T20:52:53.175Z,0.88
2022-12-09T20:55:20.455Z,0.85
2022-12-09T20:57:46.988Z,0.86
2022-12-09T21:00:13.740Z,0.86
2022-12-09T21:02:40.236Z,0.84
2022-12-09T21:05:08.299Z,0.86
2022-12-09T21:07:35.156Z,0.88
2022-12-09T21:10:05.525Z,0.84
2022-12-09T21:12:39.062Z,0.75
2022-12-09T21:15:15.670Z,0.68
2022-12-09T21:17:51.060Z,0.67
2022-12-09T21:20:27.420Z,0.68
2022-12-09T21:23:32.199Z,0.70
2022-12-09T21:26:10.616Z,0.73
2022-12-09T21:28:38.708Z,0.74
2022-12-09T21:31:11.210Z,0.72
2022-12-09T21:33:38.491Z,0.71
2022-12-09T21:36:13.044Z,0.68
2022-12-09T21:38:55.173Z,0.68
2022-12-09T21:41:26.909Z,0.66
2022-12-09T21:43:55.022Z,0.67
2022-12-09T21:46:33.613Z,0.66
2022-12-09T21:49:03.868Z,0.66
2022-12-09T21:51:34.918Z,0.69
2022-12-09T21:54:02.162Z,0.71
2022-12-09T21:56:30.664Z,0.73
2022-12-09T21:59:03.857Z,0.76
2022-12-09T22:01:40.087Z,0.75
2022-12-09T22:04:16.957Z,0.78
2022-12-09T22:06:56.128Z,0.81
2022-12-09T22:09:39.969Z,0.87
2022-12-09T22:12:21.729Z,0.90
2022-12-09T22:15:07.932Z,0.83
2022-12-09T22:17:35.560Z,0.73
2022-12-09T22:20:37.315Z,0.67
2022-12-09T22:22:51.865Z,0.59
2022-12-09T22:25:19.299Z,0.52
2022-12-09T22:27:45.681Z,0.48
2022-12-09T22:30:12.606Z,0.45
2022-12-09T22:32:42.052Z,0.39
2022-12-09T22:35:10.181Z,0.43
2022-12-09T22:37:43.616Z,0.47
2022-12-09T22:40:11.442Z,0.49
2022-12-09T22:42:37.951Z,0.54
2022-12-09T22:45:06.114Z,0.55
2022-12-09T22:47:32.713Z,0.58
2022-12-09T22:49:59.190Z,0.57
2022-12-09T22:52:25.649Z,0.60
2022-12-09T22:54:52.243Z,0.60
2022-12-09T22:57:18.752Z,0.64
2022-12-09T22:59:45.279Z,0.55
2022-12-09T23:02:11.749Z,0.51
2022-12-09T23:04:38.260Z,0.53
2022-12-09T23:07:04.791Z,0.55
2022-12-09T23:09:31.276Z,0.49
2022-12-09T23:11:57.763Z,0.46
2022-12-09T23:14:24.243Z,0.46
2022-12-09T23:16:50.687Z,0.46
2022-12-09T23:19:17.228Z,0.43
2022-12-09T23:21:43.699Z,0.38
2022-12-09T23:24:13.178Z,0.32
2022-12-09T23:26:40.896Z,0.34
2022-12-09T23:29:11.879Z,0.31
2022-12-09T23:31:39.170Z,0.30
2022-12-09T23:34:07.624Z,0.27
2022-12-09T23:36:39.200Z,0.33
2022-12-09T23:39:09.684Z,0.35
2022-12-09T23:41:38.274Z,0.37
2022-12-09T23:44:10.966Z,0.34
2022-12-09T23:46:38.149Z,0.23
2022-12-09T23:49:06.517Z,0.16
2022-12-09T23:51:35.917Z,0.12
2022-12-09T23:54:07.086Z,0.06
2022-12-09T23:56:50.732Z,0.02
2022-12-09T23:59:22.726Z,0.03
